createdAt,value
2018-12-14T00:01:23.036Z,79.70
2018-12-14T00:04:26.825Z,88.30
2018-12-14T00:07:30.561Z,86.93
2018-12-14T00:10:32.321Z,93.07
2018-12-14T00:13:33.965Z,102.10
2018-12-14T00:16:35.754Z,84.30
2018-12-14T00:19:37.473Z,87.60
2018-12-14T00:22:39.205Z,90.20
2018-12-14T00:25:42.091Z,91.20
2018-12-14T00:28:43.908Z,91.83
2018-12-14T00:31:45.605Z,105.93
2018-12-14T00:34:47.290Z,97.47
2018-12-14T00:37:49.003Z,99.53
2018-12-14T00:40:50.755Z,93.37
2018-12-14T00:43:52.438Z,100.57
2018-12-14T00:46:54.200Z,90.67
2018-12-14T00:49:55.901Z,91.40
2018-12-14T00:52:57.599Z,110.53
2018-12-14T00:55:59.350Z,143.73
2018-12-14T00:59:01.280Z,135.17
2018-12-14T01:02:05.078Z,99.50
2018-12-14T01:05:06.901Z,104.83
2018-12-14T01:08:08.664Z,100.60
2018-12-14T01:11:10.341Z,104.70
2018-12-14T01:14:12.049Z,104.70
2018-12-14T01:17:13.864Z,115.17
2018-12-14T01:20:15.615Z,108.60
2018-12-14T01:23:17.328Z,109.30
2018-12-14T01:26:19.098Z,114.07
2018-12-14T01:29:20.822Z,118.23
2018-12-14T01:32:22.620Z,100.77
2018-12-14T01:35:24.277Z,100.23
2018-12-14T01:38:26.070Z,99.73
2018-12-14T01:41:27.794Z,100.23
2018-12-14T01:44:29.490Z,83.00
2018-12-14T01:47:31.120Z,91.00
2018-12-14T01:50:32.870Z,85.37
2018-12-14T01:53:34.543Z,95.03
2018-12-14T01:56:36.307Z,90.40
2018-12-14T01:59:38.080Z,81.50
2018-12-14T02:02:39.800Z,81.00
2018-12-14T02:05:41.634Z,100.90
2018-12-14T02:08:43.439Z,101.10
2018-12-14T02:15:03.884Z,99.77
2018-12-14T02:18:05.651Z,112.93
2018-12-14T02:21:07.457Z,115.17
2018-12-14T02:24:09.399Z,111.77
2018-12-14T02:27:11.257Z,112.70
2018-12-14T02:30:25.370Z,113.77
2018-12-14T02:33:27.272Z,109.20
2018-12-14T02:36:28.979Z,119.53
2018-12-14T02:39:30.724Z,114.87
2018-12-14T02:42:39.511Z,114.00
2018-12-14T02:45:41.376Z,110.23
2018-12-14T02:48:43.105Z,117.43
2018-12-14T02:51:44.864Z,113.77
2018-12-14T02:54:46.739Z,115.87
2018-12-14T02:57:48.516Z,110.90
2018-12-14T03:00:50.174Z,108.67
2018-12-14T03:03:52.081Z,101.17
2018-12-14T03:06:53.757Z,117.87
2018-12-14T03:09:55.519Z,97.20
2018-12-14T03:12:57.625Z,97.30
2018-12-14T03:15:59.417Z,112.07
2018-12-14T03:19:01.269Z,91.30
2018-12-14T03:22:03.047Z,96.37
2018-12-14T03:25:04.762Z,114.50
2018-12-14T03:28:06.544Z,89.83
2018-12-14T03:31:08.271Z,97.87
2018-12-14T03:34:09.990Z,112.73
2018-12-14T03:37:11.710Z,94.33
2018-12-14T03:40:13.406Z,96.57
2018-12-14T03:43:15.083Z,96.60
2018-12-14T03:46:16.871Z,99.10
2018-12-14T03:49:19.356Z,93.57
2018-12-14T03:52:21.024Z,98.00
2018-12-14T03:55:22.742Z,101.97
2018-12-14T03:58:24.439Z,111.00
2018-12-14T04:01:26.182Z,98.47
2018-12-14T04:04:27.864Z,93.97
2018-12-14T04:07:29.552Z,96.30
2018-12-14T04:10:31.236Z,101.40
2018-12-14T04:13:32.905Z,91.60
2018-12-14T04:16:34.611Z,112.60
2018-12-14T04:19:37.452Z,95.60
2018-12-14T04:22:39.170Z,95.93
2018-12-14T04:25:40.961Z,96.73
2018-12-14T04:28:42.725Z,97.77
2018-12-14T04:31:44.404Z,99.23
2018-12-14T04:34:46.207Z,88.13
2018-12-14T04:37:47.926Z,105.50
2018-12-14T04:40:49.743Z,97.90
2018-12-14T04:43:51.411Z,104.60
2018-12-14T04:46:53.154Z,96.83
2018-12-14T04:49:54.809Z,105.70
2018-12-14T04:52:56.537Z,100.67
2018-12-14T04:55:58.257Z,97.40
2018-12-14T04:59:00.009Z,100.43
2018-12-14T05:02:01.679Z,93.57
2018-12-14T05:05:03.465Z,93.07
2018-12-14T05:08:05.193Z,103.40
2018-12-14T05:11:06.889Z,97.33
2018-12-14T05:14:08.644Z,104.07
2018-12-14T05:17:10.337Z,101.30
2018-12-14T05:20:12.152Z,114.67
2018-12-14T05:23:13.953Z,98.63
2018-12-14T05:26:15.837Z,115.00
2018-12-14T05:29:17.590Z,99.90
2018-12-14T05:32:19.348Z,90.07
2018-12-14T05:35:20.994Z,96.10
2018-12-14T05:38:22.693Z,91.17
2018-12-14T05:41:24.387Z,97.07
2018-12-14T05:44:26.089Z,114.47
2018-12-14T05:47:27.786Z,109.17
2018-12-14T05:50:29.496Z,115.07
2018-12-14T05:53:31.251Z,102.70
2018-12-14T05:56:33.025Z,113.03
2018-12-14T05:59:34.803Z,114.47
2018-12-14T06:02:36.529Z,102.93
2018-12-14T06:05:38.471Z,98.37
2018-12-14T06:08:40.257Z,106.00
2018-12-14T06:11:42.181Z,100.57
2018-12-14T06:14:43.901Z,100.93
2018-12-14T06:17:45.642Z,108.70
2018-12-14T06:20:47.379Z,101.13
2018-12-14T06:23:49.092Z,95.37
2018-12-14T06:26:50.980Z,119.67
2018-12-14T06:29:52.728Z,109.10
2018-12-14T06:32:54.426Z,94.43
2018-12-14T06:35:56.203Z,100.93
2018-12-14T06:38:57.929Z,107.70
2018-12-14T06:41:59.858Z,100.53
2018-12-14T06:45:01.648Z,107.60
2018-12-14T06:48:03.318Z,116.27
2018-12-14T06:51:05.381Z,143.93
2018-12-14T06:54:07.105Z,131.13
2018-12-14T06:57:08.801Z,111.17
2018-12-14T07:00:10.595Z,107.80
2018-12-14T07:03:12.334Z,115.97
2018-12-14T07:06:14.118Z,116.80
2018-12-14T07:09:15.842Z,117.80
2018-12-14T07:12:17.621Z,117.47
2018-12-14T07:15:19.323Z,101.77
2018-12-14T07:18:21.046Z,102.17
2018-12-14T07:21:22.742Z,99.63
2018-12-14T07:24:24.502Z,106.33
2018-12-14T07:27:26.294Z,102.37
2018-12-14T07:30:28.122Z,104.97
2018-12-14T07:33:29.829Z,100.90
2018-12-14T07:36:31.685Z,98.83
2018-12-14T07:39:33.452Z,92.10
2018-12-14T07:42:35.178Z,97.60
2018-12-14T07:45:36.909Z,83.80
2018-12-14T07:48:38.634Z,88.47
2018-12-14T07:51:40.341Z,60.67
2018-12-14T07:54:42.142Z,58.33
2018-12-14T07:57:43.871Z,65.37
2018-12-14T08:00:45.633Z,65.33
2018-12-14T08:03:47.477Z,67.43
2018-12-14T08:06:49.186Z,74.57
2018-12-14T08:09:50.853Z,55.03
2018-12-14T08:12:53.065Z,67.83
2018-12-14T08:15:54.801Z,63.90
2018-12-14T08:18:56.573Z,65.10
2018-12-14T08:21:58.500Z,52.33
2018-12-14T08:25:00.466Z,54.23
2018-12-14T08:28:03.665Z,58.37
2018-12-14T08:31:12.347Z,58.53
2018-12-14T08:34:14.089Z,51.13
2018-12-14T08:37:15.802Z,59.67
2018-12-14T08:40:17.539Z,58.17
2018-12-14T08:43:19.295Z,74.77
2018-12-14T08:46:21.063Z,63.47
2018-12-14T08:49:22.800Z,69.07
2018-12-14T08:52:24.581Z,60.60
2018-12-14T08:55:26.394Z,70.30
2018-12-14T08:58:28.103Z,60.40
2018-12-14T09:01:29.816Z,45.87
2018-12-14T09:04:31.532Z,48.60
2018-12-14T09:07:33.313Z,55.37
2018-12-14T09:10:35.041Z,53.80
2018-12-14T09:13:37.234Z,56.70
2018-12-14T09:16:39.106Z,47.40
2018-12-14T09:19:40.936Z,31.70
2018-12-14T09:22:42.954Z,29.43
2018-12-14T09:25:51.807Z,28.13
2018-12-14T09:28:53.793Z,45.47
2018-12-14T09:31:55.794Z,25.57
2018-12-14T09:34:57.485Z,20.93
2018-12-14T09:37:59.225Z,23.40
2018-12-14T09:41:01.589Z,16.87
2018-12-14T09:44:03.383Z,17.43
2018-12-14T09:47:05.165Z,33.67
2018-12-14T09:50:06.923Z,28.27
2018-12-14T09:53:10.727Z,34.83
2018-12-14T09:56:12.689Z,34.97
2018-12-14T09:59:14.462Z,32.47
2018-12-14T10:02:16.142Z,42.53
2018-12-14T10:05:17.865Z,53.23
2018-12-14T10:08:19.755Z,41.03
2018-12-14T10:11:21.695Z,34.57
2018-12-14T10:14:23.445Z,29.53
2018-12-14T10:17:25.154Z,32.83
2018-12-14T10:20:27.036Z,30.40
2018-12-14T10:23:28.823Z,54.83
2018-12-14T10:26:30.665Z,35.73
2018-12-14T10:29:32.538Z,33.23
2018-12-14T10:32:41.212Z,29.37
2018-12-14T10:35:42.968Z,45.67
2018-12-14T10:38:44.678Z,32.77
2018-12-14T10:41:46.476Z,32.37
2018-12-14T10:44:48.267Z,42.30
2018-12-14T10:47:49.998Z,35.70
2018-12-14T10:50:51.786Z,38.27
2018-12-14T10:53:53.537Z,37.10
2018-12-14T10:56:55.438Z,36.10
2018-12-14T10:59:57.222Z,28.53
2018-12-14T11:02:59.052Z,38.97
2018-12-14T11:06:00.764Z,40.63
2018-12-14T11:09:03.934Z,36.10
2018-12-14T11:12:06.829Z,39.23
2018-12-14T11:15:08.646Z,34.47
2018-12-14T11:18:10.394Z,34.00
2018-12-14T11:21:12.239Z,31.33
2018-12-14T11:24:14.027Z,36.00
2018-12-14T11:27:15.831Z,37.23
2018-12-14T11:30:17.574Z,28.10
2018-12-14T11:33:19.298Z,31.00
2018-12-14T11:36:21.128Z,32.27
2018-12-14T11:39:22.862Z,30.43
2018-12-14T11:42:24.685Z,29.70
2018-12-14T11:45:26.464Z,36.90
2018-12-14T11:48:28.247Z,40.47
2018-12-14T11:51:30.137Z,33.20
2018-12-14T11:54:31.968Z,40.97
2018-12-14T11:57:33.866Z,36.10
2018-12-14T12:00:35.686Z,39.77
2018-12-14T12:03:42.646Z,45.63
2018-12-14T12:06:41.238Z,37.97
2018-12-14T12:09:42.974Z,46.60
2018-12-14T12:12:51.740Z,40.63
2018-12-14T12:15:53.439Z,42.37
2018-12-14T12:18:55.193Z,35.63
2018-12-14T12:21:57.119Z,43.23
2018-12-14T12:24:58.959Z,42.60
2018-12-14T12:28:00.817Z,46.43
2018-12-14T12:31:02.596Z,46.37
2018-12-14T12:34:04.400Z,44.67
2018-12-14T12:37:06.210Z,43.43
2018-12-14T12:40:07.970Z,45.87
2018-12-14T12:43:09.936Z,48.03
2018-12-14T12:46:11.669Z,52.57
2018-12-14T12:49:13.467Z,45.03
2018-12-14T12:52:15.291Z,49.87
2018-12-14T12:55:17.222Z,44.53
2018-12-14T12:58:19.093Z,44.50
2018-12-14T13:01:20.915Z,62.40
2018-12-14T13:04:22.717Z,43.30
2018-12-14T13:07:24.436Z,57.53
2018-12-14T13:10:26.166Z,51.40
2018-12-14T13:13:27.902Z,51.23
2018-12-14T13:16:29.696Z,67.00
2018-12-14T13:19:31.486Z,45.70
2018-12-14T13:22:33.336Z,50.63
2018-12-14T13:25:35.032Z,56.27
2018-12-14T13:28:37.079Z,57.37
2018-12-14T13:31:38.839Z,66.03
2018-12-14T13:34:40.886Z,67.67
2018-12-14T13:37:42.576Z,66.87
2018-12-14T13:40:44.467Z,56.80
2018-12-14T13:43:47.356Z,237.83
2018-12-14T13:46:50.181Z,85.43
2018-12-14T13:49:52.341Z,68.37
2018-12-14T13:52:54.156Z,75.90
2018-12-14T13:55:55.996Z,64.13
2018-12-14T13:58:57.949Z,60.63
2018-12-14T14:02:01.151Z,60.80
2018-12-14T14:05:03.266Z,52.63
2018-12-14T14:08:05.042Z,46.73
2018-12-14T14:11:06.861Z,49.50
2018-12-14T14:14:08.957Z,49.33
2018-12-14T14:17:10.791Z,35.93
2018-12-14T14:20:12.562Z,41.47
2018-12-14T14:23:14.367Z,49.80
2018-12-14T14:26:16.167Z,42.00
2018-12-14T14:29:18.019Z,43.37
2018-12-14T14:32:20.960Z,40.90
2018-12-14T14:35:22.861Z,42.17
2018-12-14T14:38:24.632Z,39.73
2018-12-14T14:41:26.526Z,37.80
2018-12-14T14:44:28.420Z,34.57
2018-12-14T14:47:30.182Z,48.70
2018-12-14T14:50:32.116Z,39.33
2018-12-14T14:53:33.987Z,37.23
2018-12-14T14:56:35.736Z,43.43
2018-12-14T14:59:37.587Z,43.27
2018-12-14T15:02:39.294Z,65.37
2018-12-14T15:05:41.096Z,38.70
2018-12-14T15:08:42.915Z,39.50
2018-12-14T15:11:44.869Z,74.80
2018-12-14T15:14:46.636Z,202.30
2018-12-14T15:17:48.676Z,31.80
2018-12-14T15:20:50.571Z,42.77
2018-12-14T15:23:52.428Z,45.97
2018-12-14T15:26:54.286Z,57.53
2018-12-14T15:29:56.297Z,75.27
2018-12-14T15:32:58.352Z,40.50
2018-12-14T15:36:00.222Z,38.70
2018-12-14T15:39:01.993Z,36.33
2018-12-14T15:42:04.255Z,35.87
2018-12-14T15:45:12.966Z,32.93
2018-12-14T15:48:10.370Z,31.07
2018-12-14T15:51:12.108Z,32.23
2018-12-14T15:54:13.908Z,33.53
2018-12-14T15:57:15.719Z,31.00
2018-12-14T16:00:17.616Z,39.63
2018-12-14T16:03:19.446Z,32.33
2018-12-14T16:06:22.096Z,33.47
2018-12-14T16:09:24.293Z,44.50
2018-12-14T16:12:26.189Z,31.97
2018-12-14T16:15:28.697Z,34.57
2018-12-14T16:18:30.438Z,40.53
2018-12-14T16:21:32.287Z,28.67
2018-12-14T16:24:34.306Z,46.67
2018-12-14T16:27:37.860Z,38.87
2018-12-14T16:30:39.818Z,46.10
2018-12-14T16:33:41.582Z,58.90
2018-12-14T16:36:43.420Z,38.07
2018-12-14T16:39:45.240Z,35.27
2018-12-14T16:42:46.983Z,39.50
2018-12-14T16:45:48.834Z,48.77
2018-12-14T16:48:50.606Z,56.50
2018-12-14T16:51:52.474Z,49.30
2018-12-14T16:54:54.214Z,40.43
2018-12-14T16:57:56.021Z,47.10
2018-12-14T17:00:57.816Z,53.93
2018-12-14T17:03:59.755Z,47.90
2018-12-14T17:07:01.674Z,50.20
2018-12-14T17:10:04.571Z,52.30
2018-12-14T17:13:06.394Z,47.27
2018-12-14T17:16:08.190Z,49.00
2018-12-14T17:19:09.972Z,65.13
2018-12-14T17:25:29.624Z,55.63
2018-12-14T17:28:31.822Z,60.70
2018-12-14T17:31:33.656Z,43.73
2018-12-14T17:34:35.508Z,50.30
2018-12-14T17:37:38.446Z,48.90
2018-12-14T17:40:40.366Z,129.07
2018-12-14T17:43:42.275Z,134.77
2018-12-14T17:46:44.203Z,114.37
2018-12-14T17:49:45.975Z,38.47
2018-12-14T17:52:47.754Z,44.33
2018-12-14T17:55:49.631Z,46.90
2018-12-14T17:58:51.472Z,51.43
2018-12-14T18:01:53.406Z,70.63
2018-12-14T18:04:55.251Z,47.43
2018-12-14T18:07:57.049Z,71.60
2018-12-14T18:10:58.812Z,68.50
2018-12-14T18:14:00.852Z,62.33
2018-12-14T18:17:02.787Z,72.77
2018-12-14T18:20:06.113Z,73.30
2018-12-14T18:23:08.007Z,132.13
2018-12-14T18:26:09.901Z,124.63
2018-12-14T18:29:12.491Z,73.57
2018-12-14T18:32:14.811Z,77.10
2018-12-14T18:35:16.528Z,92.20
2018-12-14T18:38:18.384Z,63.97
2018-12-14T18:41:20.517Z,59.33
2018-12-14T18:44:23.273Z,63.13
2018-12-14T18:47:25.617Z,60.43
2018-12-14T18:50:28.954Z,62.00
2018-12-14T18:53:31.905Z,57.93
2018-12-14T18:56:33.885Z,198.10
2018-12-14T18:59:37.243Z,254.70
2018-12-14T19:02:39.374Z,169.37
2018-12-14T19:05:42.447Z,126.73
2018-12-14T19:08:44.285Z,62.67
2018-12-14T19:11:46.193Z,98.50
2018-12-14T19:14:48.078Z,85.20
2018-12-14T19:17:53.969Z,61.80
2018-12-14T19:20:56.988Z,87.20
2018-12-14T19:23:59.347Z,84.37
2018-12-14T19:27:01.396Z,65.37
2018-12-14T19:30:04.598Z,65.77
2018-12-14T19:33:06.377Z,61.70
2018-12-14T19:36:17.925Z,69.33
2018-12-14T19:39:20.915Z,65.00
2018-12-14T19:42:25.290Z,80.23
2018-12-14T19:45:28.020Z,76.07
2018-12-14T19:48:31.347Z,80.73
2018-12-14T19:51:34.149Z,73.17
2018-12-14T19:54:37.076Z,68.07
2018-12-14T19:57:39.884Z,73.17
2018-12-14T20:00:41.716Z,69.77
2018-12-14T20:03:44.390Z,91.60
2018-12-14T20:06:46.713Z,68.63
2018-12-14T20:09:49.566Z,65.43
2018-12-14T20:12:52.819Z,64.77
2018-12-14T20:15:57.755Z,62.53
2018-12-14T20:18:58.899Z,63.00
2018-12-14T20:22:00.726Z,71.43
2018-12-14T20:25:03.169Z,65.90
2018-12-14T20:28:05.846Z,73.67
2018-12-14T20:31:07.697Z,65.83
2018-12-14T20:34:09.488Z,66.33
2018-12-14T20:37:11.387Z,92.23
2018-12-14T20:40:17.069Z,73.63
2018-12-14T20:43:20.809Z,74.03
2018-12-14T20:46:22.589Z,74.73
2018-12-14T20:49:24.585Z,71.27
2018-12-14T20:52:27.169Z,76.23
2018-12-14T20:55:30.977Z,71.80
2018-12-14T20:58:33.214Z,70.83
2018-12-14T21:01:34.986Z,91.87
2018-12-14T21:04:37.876Z,95.87
2018-12-14T21:07:39.602Z,79.47
2018-12-14T21:10:41.456Z,112.43
2018-12-14T21:13:43.371Z,123.80
2018-12-14T21:16:45.149Z,110.97
2018-12-14T21:19:48.095Z,132.93
2018-12-14T21:22:49.818Z,95.23
2018-12-14T21:25:51.959Z,106.83
2018-12-14T21:28:53.809Z,132.40
2018-12-14T21:32:02.666Z,130.27
2018-12-14T21:35:04.986Z,270.93
2018-12-14T21:38:06.747Z,224.63
2018-12-14T21:41:08.522Z,102.70
2018-12-14T21:44:10.644Z,162.83
2018-12-14T21:47:12.969Z,127.30
2018-12-14T21:50:15.663Z,112.67
2018-12-14T21:53:17.532Z,112.90
2018-12-14T21:56:19.811Z,156.30
2018-12-14T21:59:21.559Z,125.17
2018-12-14T22:02:23.426Z,178.73
2018-12-14T22:05:25.163Z,197.77
2018-12-14T22:08:34.030Z,140.13
2018-12-14T22:11:35.778Z,107.70
2018-12-14T22:14:37.735Z,179.13
2018-12-14T22:17:39.427Z,112.20
2018-12-14T22:20:41.190Z,122.40
2018-12-14T22:23:42.985Z,98.00
2018-12-14T22:26:44.731Z,135.27
2018-12-14T22:29:46.474Z,99.20
2018-12-14T22:32:48.193Z,130.93
2018-12-14T22:35:49.986Z,99.87
2018-12-14T22:38:51.767Z,123.33
2018-12-14T22:41:53.521Z,117.93
2018-12-14T22:44:55.403Z,160.10
2018-12-14T22:47:57.184Z,150.30
2018-12-14T22:50:58.977Z,163.17
2018-12-14T22:54:00.705Z,137.23
2018-12-14T22:57:02.532Z,146.53
2018-12-14T23:00:07.587Z,109.77
2018-12-14T23:03:17.256Z,114.27
2018-12-14T23:06:19.164Z,152.73
2018-12-14T23:09:20.898Z,99.93
2018-12-14T23:12:22.663Z,109.07
2018-12-14T23:15:24.616Z,164.63
2018-12-14T23:18:26.527Z,174.67
2018-12-14T23:21:28.346Z,100.60
2018-12-14T23:24:30.162Z,103.83
2018-12-14T23:27:31.953Z,131.07
2018-12-14T23:30:33.883Z,122.43
2018-12-14T23:33:35.631Z,95.50
2018-12-14T23:36:37.503Z,86.77
2018-12-14T23:39:39.187Z,95.23
2018-12-14T23:42:40.890Z,105.80
2018-12-14T23:45:42.690Z,126.83
2018-12-14T23:48:44.473Z,105.43
2018-12-14T23:51:46.309Z,113.37
2018-12-14T23:54:48.023Z,109.53
2018-12-14T23:57:49.803Z,139.10
